createdAt,value
2024-03-30T00:01:19.574Z,32.90
2024-03-30T00:03:48.402Z,20.00
2024-03-30T00:06:16.635Z,24.00
2024-03-30T00:08:44.709Z,17.30
2024-03-30T00:11:12.826Z,22.60
2024-03-30T00:13:40.890Z,15.50
2024-03-30T00:16:13.200Z,17.60
2024-03-30T00:18:41.837Z,18.00
2024-03-30T00:21:17.398Z,20.90
2024-03-30T00:23:45.700Z,20.20
2024-03-30T00:26:14.001Z,22.80
2024-03-30T00:28:42.220Z,16.90
2024-03-30T00:31:10.392Z,24.00
2024-03-30T00:33:39.136Z,16.20
2024-03-30T00:36:07.593Z,18.90
2024-03-30T00:38:38.849Z,19.80
2024-03-30T00:41:06.874Z,20.60
2024-03-30T00:43:35.151Z,28.90
2024-03-30T00:46:03.222Z,25.60
2024-03-30T00:48:31.356Z,17.20
2024-03-30T00:50:59.537Z,17.60
2024-03-30T00:53:28.030Z,20.90
2024-03-30T00:56:02.265Z,17.50
2024-03-30T00:58:30.254Z,14.90
2024-03-30T01:00:58.513Z,19.10
2024-03-30T01:03:27.654Z,17.20
2024-03-30T01:05:55.898Z,23.80
2024-03-30T01:08:23.955Z,19.10
2024-03-30T01:11:01.622Z,16.40
2024-03-30T01:13:30.657Z,17.70
2024-03-30T01:15:59.615Z,17.20
2024-03-30T01:18:28.952Z,14.80
2024-03-30T01:20:59.623Z,18.70
2024-03-30T01:23:30.620Z,17.40
2024-03-30T01:25:59.718Z,13.50
2024-03-30T01:28:28.448Z,10.10
2024-03-30T01:30:57.016Z,13.10
2024-03-30T01:33:25.532Z,18.20
2024-03-30T01:35:53.579Z,16.60
2024-03-30T01:38:21.788Z,16.90
2024-03-30T01:40:51.280Z,11.60
2024-03-30T01:43:19.344Z,12.50
2024-03-30T01:45:48.927Z,16.90
2024-03-30T01:48:17.909Z,18.50
2024-03-30T01:50:45.997Z,12.00
2024-03-30T01:53:20.224Z,21.80
2024-03-30T01:55:50.179Z,17.50
2024-03-30T01:58:24.592Z,13.20
2024-03-30T02:00:55.688Z,17.70
2024-03-30T02:03:25.117Z,18.40
2024-03-30T02:05:55.745Z,12.40
2024-03-30T02:08:26.142Z,15.70
2024-03-30T02:10:56.988Z,14.60
2024-03-30T02:13:25.719Z,15.30
2024-03-30T02:15:53.749Z,13.70
2024-03-30T02:18:21.865Z,8.50
2024-03-30T02:20:49.824Z,17.00
2024-03-30T02:23:18.187Z,14.00
2024-03-30T02:25:46.597Z,17.30
2024-03-30T02:28:16.883Z,14.20
2024-03-30T02:30:45.488Z,14.40
2024-03-30T02:33:13.591Z,18.50
2024-03-30T02:35:41.863Z,14.90
2024-03-30T02:38:09.905Z,12.10
2024-03-30T02:40:38.700Z,13.60
2024-03-30T02:43:07.488Z,12.60
2024-03-30T02:45:35.674Z,12.50
2024-03-30T02:48:04.761Z,9.30
2024-03-30T02:50:33.152Z,18.50
2024-03-30T02:53:01.233Z,11.10
2024-03-30T02:55:29.731Z,11.60
2024-03-30T02:57:57.678Z,13.90
2024-03-30T03:00:25.863Z,13.20
2024-03-30T03:02:54.219Z,16.40
2024-03-30T03:05:22.509Z,15.90
2024-03-30T03:07:50.838Z,12.30
2024-03-30T03:10:18.812Z,17.80
2024-03-30T03:12:46.999Z,9.40
2024-03-30T03:15:15.232Z,10.40
2024-03-30T03:17:43.466Z,12.50
2024-03-30T03:20:11.849Z,10.00
2024-03-30T03:22:40.417Z,11.90
2024-03-30T03:25:08.408Z,8.50
2024-03-30T03:27:36.443Z,10.60
2024-03-30T03:30:05.592Z,9.50
2024-03-30T03:32:33.556Z,9.70
2024-03-30T03:35:01.542Z,7.70
2024-03-30T03:37:29.752Z,12.10
2024-03-30T03:39:57.714Z,10.40
2024-03-30T03:42:25.960Z,11.30
2024-03-30T03:44:54.244Z,15.90
2024-03-30T03:47:23.186Z,14.40
2024-03-30T03:49:51.215Z,8.70
2024-03-30T03:52:19.487Z,10.00
2024-03-30T03:54:47.466Z,10.50
2024-03-30T03:57:15.958Z,12.00
2024-03-30T03:59:44.415Z,9.70
2024-03-30T04:02:12.566Z,18.70
2024-03-30T04:04:40.695Z,9.00
2024-03-30T04:07:09.386Z,11.90
2024-03-30T04:09:37.344Z,13.00
2024-03-30T04:12:05.915Z,16.90
2024-03-30T04:14:35.045Z,12.60
2024-03-30T04:17:03.581Z,9.80
2024-03-30T04:19:31.499Z,13.80
2024-03-30T04:22:00.480Z,9.20
2024-03-30T04:24:28.407Z,14.00
2024-03-30T04:26:56.483Z,19.70
2024-03-30T04:29:24.390Z,16.90
2024-03-30T04:31:52.346Z,17.10
2024-03-30T04:34:20.595Z,15.50
2024-03-30T04:36:48.589Z,12.00
2024-03-30T04:39:16.720Z,8.90
2024-03-30T04:41:44.686Z,29.20
2024-03-30T04:44:12.839Z,14.80
2024-03-30T04:46:40.785Z,12.80
2024-03-30T04:49:11.410Z,14.00
2024-03-30T04:51:40.752Z,12.50
2024-03-30T04:54:08.910Z,19.70
2024-03-30T04:56:36.981Z,15.70
2024-03-30T04:59:04.937Z,11.50
2024-03-30T05:01:33.356Z,16.10
2024-03-30T05:04:01.533Z,12.30
2024-03-30T05:06:29.768Z,17.40
2024-03-30T05:08:58.131Z,16.80
2024-03-30T05:11:26.160Z,32.20
2024-03-30T05:13:54.876Z,21.50
2024-03-30T05:16:23.024Z,23.30
2024-03-30T05:18:51.625Z,20.20
2024-03-30T05:21:28.715Z,12.30
2024-03-30T05:23:57.008Z,36.70
2024-03-30T05:26:25.498Z,28.10
2024-03-30T05:28:53.436Z,22.00
2024-03-30T05:31:22.879Z,19.90
2024-03-30T05:33:51.373Z,26.30
2024-03-30T05:36:19.622Z,25.70
2024-03-30T05:38:47.804Z,15.00
2024-03-30T05:41:15.978Z,19.30
2024-03-30T05:43:44.089Z,17.40
2024-03-30T05:46:23.703Z,12.60
2024-03-30T05:48:51.837Z,12.70
2024-03-30T05:51:20.167Z,8.90
2024-03-30T05:53:48.149Z,7.30
2024-03-30T05:56:16.326Z,13.80
2024-03-30T05:58:44.510Z,22.10
2024-03-30T06:01:12.692Z,13.50
2024-03-30T06:03:40.891Z,7.60
2024-03-30T06:06:09.235Z,10.30
2024-03-30T06:08:37.559Z,8.20
2024-03-30T06:11:05.810Z,5.80
2024-03-30T06:13:33.865Z,12.60
2024-03-30T06:16:03.768Z,20.40
2024-03-30T06:18:32.806Z,11.20
2024-03-30T06:21:00.938Z,15.00
2024-03-30T06:23:28.926Z,14.10
2024-03-30T06:25:56.927Z,13.30
2024-03-30T06:28:24.929Z,10.00
2024-03-30T06:30:52.914Z,18.60
2024-03-30T06:33:21.200Z,14.50
2024-03-30T06:35:55.576Z,17.30
2024-03-30T06:38:23.491Z,6.80
2024-03-30T06:41:10.592Z,14.80
2024-03-30T06:43:48.168Z,9.90
2024-03-30T06:46:17.694Z,9.70
2024-03-30T06:48:46.061Z,9.20
2024-03-30T06:51:14.146Z,8.40
2024-03-30T06:53:42.090Z,19.00
2024-03-30T06:56:10.918Z,13.80
2024-03-30T06:58:39.207Z,16.00
2024-03-30T07:01:07.584Z,14.40
2024-03-30T07:03:36.185Z,12.90
2024-03-30T07:06:04.450Z,17.30
2024-03-30T07:08:32.476Z,16.10
2024-03-30T07:11:00.471Z,16.10
2024-03-30T07:13:28.639Z,13.30
2024-03-30T07:15:56.881Z,19.50
2024-03-30T07:18:25.074Z,12.40
2024-03-30T07:20:53.145Z,9.20
2024-03-30T07:23:21.513Z,20.10
2024-03-30T07:25:49.688Z,17.70
2024-03-30T07:28:17.749Z,16.00
2024-03-30T07:30:47.308Z,11.00
2024-03-30T07:33:15.438Z,25.20
2024-03-30T07:35:43.379Z,22.50
2024-03-30T07:38:11.608Z,16.10
2024-03-30T07:40:39.716Z,19.30
2024-03-30T07:43:07.954Z,9.60
2024-03-30T07:45:36.021Z,11.40
2024-03-30T07:48:04.644Z,16.90
2024-03-30T07:50:32.746Z,10.60
2024-03-30T07:53:00.855Z,17.70
2024-03-30T07:55:28.875Z,16.60
2024-03-30T07:57:57.321Z,9.60
2024-03-30T08:00:25.632Z,14.40
2024-03-30T08:03:00.680Z,12.30
2024-03-30T08:05:30.264Z,16.10
2024-03-30T08:07:58.775Z,30.90
2024-03-30T08:10:26.848Z,14.30
2024-03-30T08:12:57.022Z,8.70
2024-03-30T08:15:25.259Z,27.00
2024-03-30T08:17:53.953Z,10.50
2024-03-30T08:20:22.124Z,10.30
2024-03-30T08:22:50.716Z,16.00
2024-03-30T08:25:18.924Z,24.40
2024-03-30T08:27:47.071Z,20.40
2024-03-30T08:30:15.863Z,19.60
2024-03-30T08:32:44.149Z,40.10
2024-03-30T08:35:12.284Z,17.40
2024-03-30T08:37:40.248Z,24.70
2024-03-30T08:40:08.897Z,13.10
2024-03-30T08:42:36.980Z,39.70
2024-03-30T08:45:05.694Z,18.60
2024-03-30T08:47:33.791Z,11.90
2024-03-30T08:50:02.076Z,25.30
2024-03-30T08:52:30.181Z,23.50
2024-03-30T08:54:58.126Z,20.40
2024-03-30T08:57:26.356Z,17.00
2024-03-30T08:59:54.590Z,13.20
2024-03-30T09:02:22.876Z,26.10
2024-03-30T09:04:51.017Z,19.20
2024-03-30T09:07:19.798Z,13.90
2024-03-30T09:09:47.780Z,20.10
2024-03-30T09:12:15.975Z,16.20
2024-03-30T09:14:44.155Z,19.30
2024-03-30T09:17:12.449Z,22.30
2024-03-30T09:19:40.728Z,12.10
2024-03-30T09:22:09.014Z,14.10
2024-03-30T09:24:37.294Z,22.00
2024-03-30T09:27:05.518Z,13.80
2024-03-30T09:29:33.427Z,16.10
2024-03-30T09:32:01.448Z,15.20
2024-03-30T09:34:38.603Z,9.60
2024-03-30T09:37:14.064Z,10.30
2024-03-30T09:39:42.208Z,8.80
2024-03-30T09:42:19.852Z,8.70
2024-03-30T09:44:48.026Z,12.20
2024-03-30T09:47:17.451Z,12.50
2024-03-30T09:49:47.787Z,11.00
2024-03-30T09:52:20.190Z,10.60
2024-03-30T09:54:52.562Z,10.10
2024-03-30T09:57:23.164Z,7.00
2024-03-30T09:59:51.786Z,8.50
2024-03-30T10:02:21.120Z,7.70
2024-03-30T10:04:49.207Z,8.90
2024-03-30T10:07:23.019Z,13.90
2024-03-30T10:10:00.210Z,13.80
2024-03-30T10:12:49.017Z,16.60
2024-03-30T10:15:24.867Z,5.50
2024-03-30T10:17:52.981Z,8.90
2024-03-30T10:20:22.257Z,5.20
2024-03-30T10:22:50.309Z,8.00
2024-03-30T10:25:19.756Z,7.10
2024-03-30T10:27:47.971Z,8.00
2024-03-30T10:30:17.684Z,9.00
2024-03-30T10:32:47.016Z,19.50
2024-03-30T10:35:20.946Z,6.20
2024-03-30T10:37:49.085Z,5.60
2024-03-30T10:40:17.280Z,10.80
2024-03-30T10:42:45.620Z,5.80
2024-03-30T10:45:13.806Z,13.80
2024-03-30T10:47:41.786Z,10.50
2024-03-30T10:50:10.682Z,9.10
2024-03-30T10:52:40.263Z,9.10
2024-03-30T10:55:08.416Z,6.80
2024-03-30T10:57:36.369Z,9.40
2024-03-30T11:00:08.220Z,12.50
2024-03-30T11:02:38.495Z,9.80
2024-03-30T11:05:08.225Z,7.50
2024-03-30T11:07:39.992Z,9.30
2024-03-30T11:10:08.305Z,5.70
2024-03-30T11:12:36.280Z,10.10
2024-03-30T11:15:04.995Z,11.10
2024-03-30T11:17:39.401Z,10.20
2024-03-30T11:20:15.930Z,9.20
2024-03-30T11:22:57.095Z,11.10
2024-03-30T11:25:30.691Z,18.90
2024-03-30T11:28:05.436Z,13.20
2024-03-30T11:30:52.922Z,9.90
2024-03-30T11:33:27.538Z,11.90
2024-03-30T11:35:58.966Z,15.50
2024-03-30T11:38:40.234Z,9.30
2024-03-30T11:41:10.368Z,20.00
2024-03-30T11:44:03.874Z,13.90
2024-03-30T11:46:32.900Z,14.80
2024-03-30T11:49:01.057Z,19.40
2024-03-30T11:51:32.842Z,13.70
2024-03-30T11:54:00.921Z,16.40
2024-03-30T11:56:35.128Z,10.90
2024-03-30T11:59:03.077Z,7.80
2024-03-30T12:01:31.328Z,21.60
2024-03-30T12:03:59.879Z,14.10
2024-03-30T12:06:28.011Z,10.40
2024-03-30T12:08:56.215Z,11.80
2024-03-30T12:11:24.157Z,10.40
2024-03-30T12:13:54.333Z,13.70
2024-03-30T12:16:22.560Z,18.10
2024-03-30T12:18:51.217Z,13.80
2024-03-30T12:21:19.485Z,16.20
2024-03-30T12:23:47.916Z,11.00
2024-03-30T12:26:16.725Z,13.00
2024-03-30T12:28:45.337Z,10.50
2024-03-30T12:31:13.584Z,8.10
2024-03-30T12:33:42.267Z,16.50
2024-03-30T12:36:10.407Z,9.50
2024-03-30T12:38:42.382Z,8.60
2024-03-30T12:41:10.506Z,13.10
2024-03-30T12:43:38.474Z,14.40
2024-03-30T12:46:06.445Z,10.40
2024-03-30T12:48:34.781Z,15.80
2024-03-30T12:51:03.476Z,9.10
2024-03-30T12:53:31.708Z,5.70
2024-03-30T12:55:59.979Z,13.60
2024-03-30T12:58:28.279Z,10.80
2024-03-30T13:00:56.526Z,16.40
2024-03-30T13:03:24.568Z,10.00
2024-03-30T13:05:53.065Z,9.80
2024-03-30T13:08:21.205Z,5.80
2024-03-30T13:10:49.703Z,9.90
2024-03-30T13:13:17.838Z,12.40
2024-03-30T13:15:46.059Z,6.30
2024-03-30T13:18:14.646Z,8.50
2024-03-30T13:20:42.638Z,9.50
2024-03-30T13:23:11.642Z,7.60
2024-03-30T13:25:39.868Z,11.30
2024-03-30T13:28:08.159Z,9.30
2024-03-30T13:30:36.718Z,7.60
2024-03-30T13:33:05.444Z,8.70
2024-03-30T13:35:34.642Z,8.60
2024-03-30T13:38:04.019Z,8.20
2024-03-30T13:40:32.156Z,12.50
2024-03-30T13:43:00.127Z,7.40
2024-03-30T13:45:30.193Z,12.00
2024-03-30T13:48:00.961Z,10.50
2024-03-30T13:50:29.340Z,8.00
2024-03-30T13:52:57.779Z,7.90
2024-03-30T13:55:26.828Z,9.30
2024-03-30T13:57:56.548Z,13.50
2024-03-30T14:00:24.584Z,6.50
2024-03-30T14:02:52.661Z,6.90
2024-03-30T14:05:24.563Z,9.70
2024-03-30T14:07:52.729Z,6.40
2024-03-30T14:10:20.705Z,15.50
2024-03-30T14:12:49.167Z,12.90
2024-03-30T14:15:17.499Z,7.40
2024-03-30T14:17:47.108Z,8.20
2024-03-30T14:20:18.043Z,8.50
2024-03-30T14:22:46.110Z,4.80
2024-03-30T14:25:14.460Z,5.00
2024-03-30T14:27:42.755Z,13.80
2024-03-30T14:30:11.167Z,6.10
2024-03-30T14:32:39.248Z,7.30
2024-03-30T14:35:07.806Z,8.40
2024-03-30T14:37:35.891Z,6.70
2024-03-30T14:40:06.052Z,8.80
2024-03-30T14:42:33.959Z,11.80
2024-03-30T14:45:02.166Z,8.60
2024-03-30T14:47:30.241Z,6.90
2024-03-30T14:49:58.417Z,4.00
2024-03-30T14:52:26.600Z,8.40
2024-03-30T14:54:54.562Z,11.30
2024-03-30T14:57:23.581Z,7.90
2024-03-30T14:59:51.922Z,11.60
2024-03-30T15:02:19.935Z,7.70
2024-03-30T15:04:48.446Z,11.00
2024-03-30T15:07:17.852Z,5.50
2024-03-30T15:09:46.245Z,7.30
2024-03-30T15:12:14.378Z,9.90
2024-03-30T15:14:42.476Z,5.30
2024-03-30T15:17:10.955Z,3.30
2024-03-30T15:19:39.040Z,6.80
2024-03-30T15:22:07.077Z,4.50
2024-03-30T15:24:35.113Z,3.80
2024-03-30T15:27:04.271Z,6.90
2024-03-30T15:29:34.218Z,7.10
2024-03-30T15:32:16.569Z,6.70
2024-03-30T15:34:46.507Z,6.70
2024-03-30T15:37:14.478Z,6.60
2024-03-30T15:39:42.638Z,6.10
2024-03-30T15:42:11.088Z,8.80
2024-03-30T15:44:39.253Z,8.60
2024-03-30T15:47:09.808Z,8.40
2024-03-30T15:49:38.077Z,6.00
2024-03-30T15:52:06.962Z,11.90
2024-03-30T15:54:34.930Z,20.20
2024-03-30T15:57:04.097Z,4.60
2024-03-30T15:59:32.230Z,7.00
2024-03-30T16:02:00.360Z,8.10
2024-03-30T16:04:28.775Z,12.00
2024-03-30T16:06:57.259Z,8.30
2024-03-30T16:09:25.929Z,11.00
2024-03-30T16:11:54.170Z,13.40
2024-03-30T16:14:22.877Z,6.00
2024-03-30T16:16:50.840Z,8.70
2024-03-30T16:19:18.985Z,10.80
2024-03-30T16:21:47.177Z,13.30
2024-03-30T16:24:15.179Z,19.80
2024-03-30T16:26:43.323Z,14.00
2024-03-30T16:29:11.267Z,13.30
2024-03-30T16:31:39.383Z,14.00
2024-03-30T16:34:07.580Z,12.40
2024-03-30T16:36:35.796Z,13.10
2024-03-30T16:39:14.352Z,9.90
2024-03-30T16:41:47.006Z,10.80
2024-03-30T16:44:24.432Z,12.90
2024-03-30T16:46:52.926Z,13.00
2024-03-30T16:49:21.763Z,13.20
2024-03-30T16:51:51.683Z,14.10
2024-03-30T16:54:21.164Z,13.70
2024-03-30T16:56:49.212Z,12.30
2024-03-30T16:59:17.404Z,12.30
2024-03-30T17:01:45.491Z,6.90
2024-03-30T17:04:14.372Z,6.50
2024-03-30T17:06:42.641Z,15.30
2024-03-30T17:09:10.649Z,7.60
2024-03-30T17:11:38.648Z,9.80
2024-03-30T17:14:08.117Z,10.70
2024-03-30T17:16:36.330Z,11.80
2024-03-30T17:19:04.788Z,16.80
2024-03-30T17:21:32.940Z,6.10
2024-03-30T17:24:02.066Z,19.10
2024-03-30T17:26:30.306Z,12.10
2024-03-30T17:28:58.269Z,15.80
2024-03-30T17:31:26.315Z,8.10
2024-03-30T17:33:54.310Z,18.00
2024-03-30T17:36:22.330Z,9.80
2024-03-30T17:38:50.648Z,11.90
2024-03-30T17:41:18.814Z,10.30
2024-03-30T17:43:46.918Z,11.00
2024-03-30T17:46:16.682Z,15.70
2024-03-30T17:48:45.418Z,13.40
2024-03-30T17:51:14.700Z,6.80
2024-03-30T17:53:48.322Z,8.30
2024-03-30T17:56:16.307Z,10.00
2024-03-30T17:58:46.865Z,14.20
2024-03-30T18:01:17.907Z,6.90
2024-03-30T18:03:47.571Z,4.70
2024-03-30T18:06:24.333Z,12.10
2024-03-30T18:08:55.254Z,9.30
2024-03-30T18:11:26.953Z,8.60
2024-03-30T18:13:56.879Z,8.90
2024-03-30T18:16:25.105Z,14.30
2024-03-30T18:18:53.075Z,8.70
2024-03-30T18:21:21.217Z,21.00
2024-03-30T18:23:51.296Z,10.80
2024-03-30T18:26:20.755Z,13.40
2024-03-30T18:28:49.923Z,9.90
2024-03-30T18:31:19.651Z,14.80
2024-03-30T18:33:49.584Z,7.20
2024-03-30T18:36:17.645Z,9.70
2024-03-30T18:38:46.048Z,13.10
2024-03-30T18:41:13.978Z,11.20
2024-03-30T18:43:43.486Z,9.00
2024-03-30T18:46:14.250Z,11.90
2024-03-30T18:48:42.248Z,12.20
2024-03-30T18:51:11.592Z,11.30
2024-03-30T18:53:39.912Z,11.60
2024-03-30T18:56:09.752Z,11.20
2024-03-30T18:58:37.833Z,14.10
2024-03-30T19:01:09.431Z,15.40
2024-03-30T19:03:37.549Z,16.10
2024-03-30T19:06:05.897Z,36.20
2024-03-30T19:08:33.936Z,13.80
2024-03-30T19:11:05.522Z,24.40
2024-03-30T19:13:33.777Z,24.40
2024-03-30T19:16:01.757Z,24.80
2024-03-30T19:18:29.701Z,20.90
2024-03-30T19:20:57.781Z,15.50
2024-03-30T19:23:26.036Z,19.00
2024-03-30T19:25:54.371Z,19.00
2024-03-30T19:28:23.237Z,19.60
2024-03-30T19:30:55.330Z,21.80
2024-03-30T19:33:23.257Z,29.10
2024-03-30T19:35:58.787Z,19.80
2024-03-30T19:38:30.503Z,27.60
2024-03-30T19:41:11.714Z,22.60
2024-03-30T19:43:40.194Z,26.20
2024-03-30T19:46:08.262Z,21.30
2024-03-30T19:48:36.424Z,25.20
2024-03-30T19:51:05.506Z,19.30
2024-03-30T19:53:36.798Z,18.60
2024-03-30T19:56:05.517Z,16.60
2024-03-30T19:58:33.482Z,20.70
2024-03-30T20:01:08.981Z,21.70
2024-03-30T20:03:37.626Z,22.70
2024-03-30T20:06:07.170Z,18.60
2024-03-30T20:08:36.770Z,24.40
2024-03-30T20:11:05.649Z,16.80
2024-03-30T20:13:34.330Z,19.10
2024-03-30T20:16:05.641Z,19.20
2024-03-30T20:18:37.065Z,18.10
2024-03-30T20:21:05.932Z,15.10
2024-03-30T20:23:36.931Z,20.70
2024-03-30T20:26:06.419Z,28.10
2024-03-30T20:28:35.558Z,18.90
2024-03-30T20:31:11.425Z,24.90
2024-03-30T20:33:39.902Z,15.70
2024-03-30T20:36:09.884Z,41.40
2024-03-30T20:38:39.013Z,18.70
2024-03-30T20:41:10.917Z,28.80
2024-03-30T20:43:40.986Z,23.70
2024-03-30T20:46:13.492Z,46.40
2024-03-30T20:48:45.767Z,27.40
2024-03-30T20:51:14.056Z,38.90
2024-03-30T20:53:42.686Z,30.70
2024-03-30T20:56:10.719Z,20.60
2024-03-30T20:58:38.882Z,17.40
2024-03-30T21:01:07.498Z,29.40
2024-03-30T21:03:36.763Z,37.30
2024-03-30T21:06:09.256Z,26.10
2024-03-30T21:08:37.371Z,23.20
2024-03-30T21:11:05.711Z,15.10
2024-03-30T21:13:34.391Z,17.60
2024-03-30T21:16:03.507Z,18.20
2024-03-30T21:18:33.213Z,14.90
2024-03-30T21:21:02.630Z,25.30
2024-03-30T21:23:33.085Z,26.20
2024-03-30T21:26:05.675Z,23.20
2024-03-30T21:28:36.327Z,24.00
2024-03-30T21:31:04.693Z,22.60
2024-03-30T21:33:35.724Z,26.60
2024-03-30T21:36:04.644Z,17.20
2024-03-30T21:38:32.646Z,19.50
2024-03-30T21:41:01.876Z,25.60
2024-03-30T21:43:29.932Z,17.00
2024-03-30T21:46:01.205Z,31.50
2024-03-30T21:48:29.290Z,25.30
2024-03-30T21:50:58.969Z,22.20
2024-03-30T21:53:27.725Z,21.50
2024-03-30T21:55:56.789Z,23.00
2024-03-30T21:58:24.794Z,23.80
2024-03-30T22:00:53.280Z,33.20
2024-03-30T22:03:21.965Z,25.90
2024-03-30T22:05:57.802Z,21.70
2024-03-30T22:08:26.480Z,21.60
2024-03-30T22:10:55.325Z,23.80
2024-03-30T22:13:23.730Z,25.20
2024-03-30T22:15:51.651Z,22.50
2024-03-30T22:18:19.846Z,19.00
2024-03-30T22:20:47.772Z,26.00
2024-03-30T22:23:16.010Z,25.80
2024-03-30T22:25:44.357Z,22.30
2024-03-30T22:28:12.552Z,25.70
2024-03-30T22:30:40.729Z,25.00
2024-03-30T22:33:09.529Z,27.10
2024-03-30T22:35:38.814Z,31.60
2024-03-30T22:38:07.220Z,33.00
2024-03-30T22:40:37.499Z,30.70
2024-03-30T22:43:06.898Z,30.50
2024-03-30T22:45:38.189Z,34.40
2024-03-30T22:48:07.001Z,31.50
2024-03-30T22:50:35.194Z,30.60
2024-03-30T22:53:03.530Z,33.30
2024-03-30T22:55:31.541Z,39.10
2024-03-30T22:57:59.569Z,34.40
2024-03-30T23:00:27.880Z,30.90
2024-03-30T23:02:56.338Z,24.50
2024-03-30T23:05:24.799Z,26.00
2024-03-30T23:07:52.906Z,39.80
2024-03-30T23:10:21.099Z,32.90
2024-03-30T23:12:49.059Z,35.20
2024-03-30T23:15:17.373Z,37.90
2024-03-30T23:17:45.978Z,33.80
2024-03-30T23:20:13.960Z,24.60
2024-03-30T23:22:42.175Z,36.80
2024-03-30T23:25:10.318Z,34.30
2024-03-30T23:27:38.872Z,36.50
2024-03-30T23:30:07.887Z,31.00
2024-03-30T23:32:36.479Z,26.60
2024-03-30T23:35:05.335Z,32.30
2024-03-30T23:37:33.746Z,33.10
2024-03-30T23:40:01.923Z,33.60
2024-03-30T23:42:30.099Z,34.40
2024-03-30T23:44:58.070Z,33.50
2024-03-30T23:47:26.073Z,29.90
2024-03-30T23:49:54.519Z,37.10
2024-03-30T23:52:22.604Z,30.30
2024-03-30T23:54:50.624Z,33.10
2024-03-30T23:57:18.979Z,26.30
2024-03-30T23:59:47.220Z,36.50
